Time;durP1;ratioP1;P1;durP2;ratioP2;P2;SDS_P1;SDS_P2;PMS_P1;PMS_P2;Temp;Humidity;BMP_temperature;BMP_pressure;BME280_temperature;BME280_humidity;BME280_pressure;Samples;Min_cycle;Max_cycle;Signal;HPM_P1;HPM_P2
2021/06/28 00:00:15;;;;;;;1.90;1.60;;;22.00;98.00;;;;;;5071653;28;20476;-75
2021/06/28 00:05:29;;;;;;;3.10;1.70;;;22.00;98.00;;;;;;5317962;23;20451;-73
2021/06/28 00:07:57;;;;;;;1.33;1.27;;;22.00;98.00;;;;;;5053381;28;20485;-74
2021/06/28 00:10:27;;;;;;;1.70;1.57;;;22.10;98.00;;;;;;5071975;28;20474;-73
2021/06/28 00:12:56;;;;;;;3.23;2.00;;;22.20;98.00;;;;;;5069387;28;20812;-73
2021/06/28 00:15:27;;;;;;;2.10;1.50;;;22.20;98.00;;;;;;5072276;28;20457;-74
2021/06/28 00:17:54;;;;;;;1.83;1.40;;;22.20;98.00;;;;;;5069559;28;20456;-73
2021/06/28 00:20:22;;;;;;;1.30;1.30;;;22.20;98.00;;;;;;5071934;28;20469;-73
2021/06/28 00:22:50;;;;;;;1.20;1.20;;;22.20;98.00;;;;;;5069373;28;20468;-73
2021/06/28 00:25:19;;;;;;;1.80;1.57;;;22.20;98.00;;;;;;5071893;28;20550;-72
2021/06/28 00:27:47;;;;;;;2.40;1.57;;;22.20;98.00;;;;;;5069423;28;20453;-73
2021/06/28 00:30:17;;;;;;;1.97;1.87;;;22.20;98.00;;;;;;5072217;28;20449;-73
2021/06/28 00:32:46;;;;;;;1.60;1.50;;;22.30;98.00;;;;;;5069385;28;20525;-72
2021/06/28 00:35:14;;;;;;;1.77;1.60;;;22.20;98.00;;;;;;5072019;28;20506;-72
2021/06/28 00:37:41;;;;;;;1.60;1.43;;;22.10;98.00;;;;;;5069382;28;20452;-72
2021/06/28 00:40:10;;;;;;;1.73;1.60;;;21.90;98.00;;;;;;5071926;28;20511;-73
2021/06/28 00:42:38;;;;;;;2.67;1.70;;;21.80;98.00;;;;;;5068613;28;20461;-72
2021/06/28 00:45:16;;;;;;;2.03;1.33;;;21.70;98.00;;;;;;5071075;28;20824;-73
2021/06/28 00:47:45;;;;;;;1.70;1.33;;;21.60;98.00;;;;;;5068338;28;20969;-73
2021/06/28 00:50:14;;;;;;;2.03;1.47;;;21.60;98.00;;;;;;5071093;28;20521;-73
2021/06/28 00:52:43;;;;;;;1.50;1.30;;;21.50;98.00;;;;;;5068215;28;20561;-73
2021/06/28 00:55:11;;;;;;;1.70;1.50;;;21.60;98.00;;;;;;5071277;28;20993;-73
2021/06/28 00:57:38;;;;;;;1.60;1.50;;;21.70;98.00;;;;;;5068673;28;20468;-73
2021/06/28 01:00:08;;;;;;;1.30;1.30;;;21.80;98.00;;;;;;5071669;28;20825;-73
2021/06/28 01:02:36;;;;;;;1.37;1.23;;;21.60;98.00;;;;;;5068684;28;20461;-73
2021/06/28 01:05:08;;;;;;;1.40;1.40;;;21.60;98.00;;;;;;5071402;28;20999;-72
2021/06/28 01:07:35;;;;;;;2.03;1.50;;;21.60;98.00;;;;;;5068810;28;20530;-73
2021/06/28 01:10:03;;;;;;;1.63;1.50;;;21.60;98.00;;;;;;5071430;28;20799;-74
2021/06/28 01:12:31;;;;;;;1.50;1.30;;;21.60;98.00;;;;;;5068644;28;20526;-73
2021/06/28 01:15:00;;;;;;;1.20;1.10;;;21.60;98.00;;;;;;5071370;28;20506;-73
2021/06/28 01:17:28;;;;;;;1.53;1.40;;;21.60;98.00;;;;;;5068797;28;20468;-74
2021/06/28 01:20:01;;;;;;;2.30;1.57;;;21.60;98.00;;;;;;5071748;28;20449;-72
2021/06/28 01:22:35;;;;;;;1.50;1.40;;;21.70;98.00;;;;;;5068675;28;20461;-72
2021/06/28 01:25:09;;;;;;;1.63;1.43;;;21.80;98.00;;;;;;5074358;28;20491;-74
2021/06/28 01:27:37;;;;;;;1.20;1.10;;;21.70;98.00;;;;;;5072046;28;20473;-73
2021/06/28 01:30:06;;;;;;;2.43;1.63;;;21.60;98.00;;;;;;5075248;28;20526;-73
2021/06/28 01:32:35;;;;;;;1.40;1.30;;;21.70;98.00;;;;;;5072523;28;20522;-73
2021/06/28 01:35:02;;;;;;;1.70;1.40;;;21.80;98.00;;;;;;5075264;28;20445;-72
2021/06/28 01:37:39;;;;;;;1.30;1.27;;;21.60;98.00;;;;;;5072105;28;20468;-73
2021/06/28 01:40:10;;;;;;;1.20;1.20;;;21.60;98.00;;;;;;5073999;28;20456;-73
2021/06/28 01:42:38;;;;;;;1.40;1.20;;;21.50;98.00;;;;;;5072246;28;20469;-73
2021/06/28 01:45:09;;;;;;;1.40;1.20;;;21.50;98.00;;;;;;5074922;28;20492;-74
2021/06/28 01:47:36;;;;;;;1.73;1.67;;;21.50;98.00;;;;;;5071466;28;20471;-73
2021/06/28 01:50:04;;;;;;;1.40;1.30;;;21.50;98.00;;;;;;5074839;28;20517;-73
2021/06/28 01:52:31;;;;;;;2.27;1.40;;;21.40;98.00;;;;;;5072204;28;20464;-74
2021/06/28 01:54:58;;;;;;;1.53;1.43;;;21.30;98.00;;;;;;5074801;28;20859;-73
2021/06/28 01:57:31;;;;;;;1.50;1.20;;;21.30;98.00;;;;;;5071879;28;20542;-73
2021/06/28 01:59:59;;;;;;;1.37;1.30;;;21.20;98.00;;;;;;5074616;28;20931;-73
2021/06/28 02:02:26;;;;;;;1.93;1.30;;;21.00;98.00;;;;;;5072047;28;20522;-72
2021/06/28 02:04:53;;;;;;;1.40;1.33;;;20.90;98.00;;;;;;5074509;28;20492;-73
2021/06/28 02:07:23;;;;;;;1.30;1.20;;;20.90;98.00;;;;;;5070460;28;20476;-74
2021/06/28 02:09:51;;;;;;;1.40;1.20;;;20.90;98.00;;;;;;5074629;28;21023;-73
2021/06/28 02:12:18;;;;;;;1.40;1.30;;;20.80;98.00;;;;;;5072330;28;21376;-73
2021/06/28 02:14:46;;;;;;;1.50;1.30;;;20.80;98.00;;;;;;5074736;28;20518;-74
2021/06/28 02:17:14;;;;;;;1.70;1.30;;;20.80;98.00;;;;;;5071858;28;20465;-73
2021/06/28 02:19:45;;;;;;;1.63;1.30;;;20.90;98.00;;;;;;5074700;28;20460;-73
2021/06/28 02:22:15;;;;;;;1.40;1.30;;;21.00;98.00;;;;;;5070520;28;20472;-73
2021/06/28 02:24:42;;;;;;;1.53;1.37;;;20.90;98.00;;;;;;5074427;28;20488;-73
2021/06/28 02:27:11;;;;;;;3.10;1.17;;;20.70;98.00;;;;;;5071725;28;20453;-73
2021/06/28 02:29:38;;;;;;;1.30;1.30;;;20.70;98.00;;;;;;5074348;28;20465;-74
2021/06/28 02:32:08;;;;;;;1.40;1.30;;;20.70;98.00;;;;;;5071346;28;20465;-73
2021/06/28 02:34:35;;;;;;;1.30;1.30;;;20.80;98.00;;;;;;5073729;28;20469;-73
2021/06/28 02:37:03;;;;;;;1.37;1.23;;;20.90;98.00;;;;;;5071854;28;20468;-73
2021/06/28 02:39:30;;;;;;;1.87;1.27;;;21.10;98.00;;;;;;5073787;28;20464;-74
2021/06/28 02:41:57;;;;;;;1.70;1.30;;;21.00;98.00;;;;;;5073424;28;20602;-74
2021/06/28 02:44:24;;;;;;;1.20;1.20;;;21.00;98.00;;;;;;5072285;28;20461;-73
2021/06/28 02:46:51;;;;;;;2.70;1.27;;;20.90;98.00;;;;;;5073760;28;20522;-74
2021/06/28 02:49:22;;;;;;;1.50;1.30;;;20.80;98.00;;;;;;5071441;28;20548;-73
2021/06/28 02:51:49;;;;;;;2.37;1.60;;;20.80;98.00;;;;;;5073249;28;20460;-73
2021/06/28 02:54:16;;;;;;;1.43;1.40;;;20.80;98.00;;;;;;5070783;28;20831;-74
2021/06/28 02:56:44;;;;;;;1.20;1.10;;;20.80;98.00;;;;;;5073394;28;20460;-74
2021/06/28 02:59:12;;;;;;;1.50;1.30;;;20.80;98.00;;;;;;5071280;28;20525;-72
2021/06/28 03:01:40;;;;;;;1.50;1.30;;;20.80;98.00;;;;;;5073675;28;20457;-73
2021/06/28 03:04:07;;;;;;;1.63;1.50;;;20.90;98.00;;;;;;5070980;28;21176;-72
2021/06/28 03:06:35;;;;;;;1.30;1.20;;;20.80;98.00;;;;;;5073530;28;20485;-73
2021/06/28 03:09:03;;;;;;;1.47;1.40;;;20.80;98.00;;;;;;5071468;28;20468;-73
2021/06/28 03:11:30;;;;;;;1.57;1.27;;;20.80;98.00;;;;;;5073673;28;20449;-73
2021/06/28 03:13:57;;;;;;;1.40;1.30;;;20.70;98.00;;;;;;5071119;28;20460;-73
2021/06/28 03:16:26;;;;;;;1.30;1.20;;;20.60;98.00;;;;;;5073545;28;20479;-73
2021/06/28 03:18:53;;;;;;;1.20;1.10;;;20.60;98.00;;;;;;5071027;28;20518;-73
2021/06/28 03:21:20;;;;;;;1.50;1.20;;;20.40;98.00;;;;;;5073282;28;20461;-74
2021/06/28 03:23:49;;;;;;;1.53;1.43;;;20.40;98.00;;;;;;5070664;28;20468;-74
2021/06/28 03:26:16;;;;;;;1.50;1.20;;;20.30;98.00;;;;;;5071755;28;20538;-73
2021/06/28 03:28:43;;;;;;;1.30;1.20;;;20.20;98.00;;;;;;5070559;28;20453;-74
2021/06/28 03:31:14;;;;;;;1.60;1.30;;;20.10;98.00;;;;;;5071783;28;20476;-72
2021/06/28 03:33:41;;;;;;;1.40;1.30;;;20.10;98.00;;;;;;5069173;28;20847;-74
2021/06/28 03:36:10;;;;;;;1.30;1.10;;;20.10;98.00;;;;;;5072861;28;20955;-73
2021/06/28 03:38:38;;;;;;;1.20;1.20;;;20.10;98.00;;;;;;5069003;28;20514;-72
2021/06/28 03:41:08;;;;;;;1.40;1.30;;;20.10;98.00;;;;;;5072848;28;20528;-73
2021/06/28 03:43:35;;;;;;;1.30;1.30;;;20.30;98.00;;;;;;5070186;28;20806;-73
2021/06/28 03:46:07;;;;;;;2.07;1.50;;;20.20;98.00;;;;;;5072330;28;20484;-73
2021/06/28 03:48:34;;;;;;;1.30;1.20;;;20.10;98.00;;;;;;5067949;28;20460;-73
2021/06/28 03:51:02;;;;;;;1.33;1.20;;;20.20;98.00;;;;;;5072681;28;20460;-72
2021/06/28 03:53:29;;;;;;;1.63;1.43;;;20.40;98.00;;;;;;5069269;28;20860;-73
2021/06/28 03:55:56;;;;;;;1.40;1.30;;;20.30;98.00;;;;;;5072555;28;20461;-73
2021/06/28 03:58:25;;;;;;;1.20;1.17;;;20.20;98.00;;;;;;5069752;28;20461;-74
2021/06/28 04:00:52;;;;;;;1.20;1.00;;;20.10;98.00;;;;;;5072729;28;20875;-72
2021/06/28 04:03:20;;;;;;;1.20;1.00;;;20.10;98.00;;;;;;5070271;28;21083;-74
2021/06/28 04:05:48;;;;;;;1.57;1.40;;;20.10;98.00;;;;;;5071316;28;20488;-75
2021/06/28 04:08:15;;;;;;;1.27;1.27;;;20.00;98.00;;;;;;5068216;28;20477;-73
2021/06/28 04:10:42;;;;;;;1.40;1.27;;;20.10;98.00;;;;;;5072298;28;20465;-72
2021/06/28 04:13:10;;;;;;;1.20;1.20;;;20.10;98.00;;;;;;5069647;28;20461;-73
2021/06/28 04:15:39;;;;;;;1.33;1.30;;;20.10;98.00;;;;;;5072192;28;20460;-74
2021/06/28 04:18:06;;;;;;;3.30;1.20;;;20.10;98.00;;;;;;5069786;28;20464;-74
2021/06/28 04:20:33;;;;;;;1.73;1.40;;;20.10;98.00;;;;;;5071910;28;20456;-73
2021/06/28 04:23:00;;;;;;;1.50;1.30;;;20.10;98.00;;;;;;5069292;28;20467;-72
2021/06/28 04:25:29;;;;;;;1.50;1.20;;;20.00;98.00;;;;;;5071704;28;20486;-73
2021/06/28 04:27:56;;;;;;;2.73;1.60;;;20.10;98.00;;;;;;5069068;28;20520;-73
2021/06/28 04:30:23;;;;;;;1.57;1.50;;;20.10;98.00;;;;;;5071804;28;20461;-72
2021/06/28 04:32:52;;;;;;;1.30;1.20;;;20.00;98.00;;;;;;5069705;28;20461;-73
2021/06/28 04:35:25;;;;;;;1.20;1.20;;;20.00;98.00;;;;;;5072004;28;20464;-73
2021/06/28 04:37:53;;;;;;;1.20;1.10;;;20.00;98.00;;;;;;5069209;28;20457;-72
2021/06/28 04:40:24;;;;;;;1.30;1.20;;;20.10;98.00;;;;;;5071776;28;20956;-74
2021/06/28 04:42:52;;;;;;;2.03;1.53;;;20.20;98.00;;;;;;5068400;28;20460;-73
2021/06/28 04:45:21;;;;;;;1.63;1.10;;;20.40;98.00;;;;;;5071711;28;20460;-73
2021/06/28 04:47:49;;;;;;;1.50;1.20;;;20.40;98.00;;;;;;5069336;28;20461;-74
2021/06/28 04:50:23;;;;;;;1.70;1.50;;;20.60;98.00;;;;;;5071991;28;20456;-73
2021/06/28 04:52:51;;;;;;;1.20;1.03;;;20.70;98.00;;;;;;5069297;28;20953;-73
2021/06/28 04:55:18;;;;;;;1.20;1.20;;;20.50;98.00;;;;;;5071792;28;20551;-74
2021/06/28 04:57:47;;;;;;;2.17;1.37;;;20.60;98.00;;;;;;5069209;28;20985;-73
2021/06/28 05:00:17;;;;;;;1.20;1.10;;;20.50;98.00;;;;;;5071870;28;20464;-73
2021/06/28 05:02:44;;;;;;;1.47;1.23;;;20.50;98.00;;;;;;5067643;28;20544;-72
2021/06/28 05:05:15;;;;;;;1.87;1.40;;;20.60;98.00;;;;;;5071531;28;20505;-72
2021/06/28 05:07:44;;;;;;;1.30;1.17;;;20.60;98.00;;;;;;5068976;28;20480;-74
2021/06/28 05:10:13;;;;;;;1.50;1.40;;;20.60;98.00;;;;;;5071812;28;20987;-74
2021/06/28 05:12:40;;;;;;;1.30;1.10;;;20.70;98.00;;;;;;5068820;28;20460;-72
2021/06/28 05:15:09;;;;;;;1.70;1.17;;;20.70;98.00;;;;;;5071485;28;20460;-73
2021/06/28 05:17:38;;;;;;;1.20;1.17;;;20.70;98.00;;;;;;5068406;28;20456;-72
2021/06/28 05:20:10;;;;;;;2.87;1.90;;;20.80;98.00;;;;;;5071504;28;20786;-73
2021/06/28 05:22:37;;;;;;;1.63;1.37;;;21.00;98.00;;;;;;5068542;28;20472;-73
2021/06/28 05:25:10;;;;;;;1.40;1.33;;;20.90;98.00;;;;;;5071522;28;20468;-73
2021/06/28 05:27:37;;;;;;;1.57;1.43;;;20.90;98.00;;;;;;5068551;28;21259;-73
2021/06/28 05:30:07;;;;;;;1.20;1.20;;;20.80;98.00;;;;;;5071217;28;20510;-73
2021/06/28 05:32:34;;;;;;;1.87;1.40;;;20.80;98.00;;;;;;5068559;28;20464;-73
2021/06/28 05:35:02;;;;;;;2.03;1.50;;;20.80;98.00;;;;;;5070988;28;20490;-73
2021/06/28 05:37:29;;;;;;;1.50;1.30;;;20.80;98.00;;;;;;5068219;28;20452;-73
2021/06/28 05:39:56;;;;;;;1.20;1.10;;;20.90;98.00;;;;;;5071213;28;21167;-73
2021/06/28 05:42:24;;;;;;;1.70;1.27;;;20.90;98.00;;;;;;5068635;28;20453;-72
2021/06/28 05:44:51;;;;;;;1.33;1.30;;;21.00;98.00;;;;;;5071405;28;20468;-72
2021/06/28 05:47:22;;;;;;;1.57;1.47;;;21.00;98.00;;;;;;5069682;28;21004;-73
2021/06/28 05:49:50;;;;;;;2.83;1.30;;;21.10;98.00;;;;;;5070955;28;20467;-74
2021/06/28 05:52:20;;;;;;;1.40;1.20;;;21.20;98.00;;;;;;5070644;28;20469;-73
2021/06/28 05:54:47;;;;;;;1.30;1.30;;;21.30;98.00;;;;;;5071223;28;20463;-73
2021/06/28 05:57:15;;;;;;;1.80;1.70;;;21.30;98.00;;;;;;5071163;28;20882;-72
2021/06/28 05:59:45;;;;;;;1.80;1.63;;;21.30;98.00;;;;;;5068097;28;20963;-73
2021/06/28 06:02:12;;;;;;;1.30;1.30;;;21.10;98.00;;;;;;5071063;28;20468;-74
2021/06/28 06:04:40;;;;;;;1.40;1.40;;;21.10;98.00;;;;;;5068201;28;20517;-72
2021/06/28 06:07:07;;;;;;;1.27;1.20;;;21.20;98.00;;;;;;5069538;28;20500;-73
2021/06/28 06:09:34;;;;;;;1.50;1.30;;;21.10;98.00;;;;;;5068743;28;20842;-73
2021/06/28 06:12:01;;;;;;;1.50;1.33;;;21.20;98.00;;;;;;5074325;28;20478;-75
2021/06/28 06:14:29;;;;;;;2.00;1.50;;;21.30;98.00;;;;;;5070339;28;20467;-74
2021/06/28 06:16:59;;;;;;;1.30;1.30;;;21.30;98.00;;;;;;5074122;28;20822;-74
2021/06/28 06:19:26;;;;;;;1.80;1.40;;;21.40;98.00;;;;;;5071806;28;20465;-74
2021/06/28 06:21:53;;;;;;;1.60;1.47;;;21.60;98.00;;;;;;5074222;28;20503;-75
2021/06/28 06:24:24;;;;;;;1.90;1.47;;;21.80;98.00;;;;;;5072245;28;20518;-74
2021/06/28 06:26:51;;;;;;;1.30;1.27;;;21.80;98.00;;;;;;5074310;28;20495;-73
2021/06/28 06:29:18;;;;;;;1.30;1.30;;;21.70;98.00;;;;;;5072326;28;20992;-73
2021/06/28 06:31:47;;;;;;;3.00;1.53;;;21.70;98.00;;;;;;5074140;28;20464;-74
2021/06/28 06:34:16;;;;;;;2.03;1.60;;;21.80;98.00;;;;;;5071360;28;20465;-74
2021/06/28 06:36:43;;;;;;;1.67;1.53;;;21.80;98.00;;;;;;5074274;28;20997;-74
2021/06/28 06:39:10;;;;;;;1.60;1.30;;;21.90;98.00;;;;;;5071646;28;20461;-73
2021/06/28 06:41:37;;;;;;;1.60;1.20;;;22.00;98.00;;;;;;5074131;28;20845;-74
2021/06/28 06:44:04;;;;;;;1.30;1.30;;;21.90;98.00;;;;;;5071082;28;20817;-73
2021/06/28 06:46:31;;;;;;;1.67;1.40;;;22.10;98.00;;;;;;5074124;28;20488;-74
2021/06/28 06:48:59;;;;;;;1.73;1.50;;;22.20;98.00;;;;;;5071743;28;20465;-74
2021/06/28 06:51:29;;;;;;;1.50;1.30;;;22.30;98.00;;;;;;5073856;28;20994;-73
2021/06/28 06:53:56;;;;;;;1.30;1.30;;;22.40;98.00;;;;;;5070833;28;20465;-73
2021/06/28 06:56:23;;;;;;;2.50;1.50;;;22.50;98.00;;;;;;5073957;28;20457;-74
2021/06/28 06:58:50;;;;;;;1.50;1.43;;;22.50;98.00;;;;;;5071476;28;20472;-74
2021/06/28 07:01:18;;;;;;;1.60;1.43;;;22.60;98.00;;;;;;5073583;28;20463;-73
2021/06/28 07:03:46;;;;;;;1.77;1.50;;;22.70;98.00;;;;;;5069041;28;20461;-74
2021/06/28 07:06:14;;;;;;;1.60;1.40;;;22.90;98.00;;;;;;5055368;28;20485;-71
2021/06/28 07:08:43;;;;;;;2.57;1.53;;;23.10;98.00;;;;;;5070131;28;21016;-70
2021/06/28 07:11:11;;;;;;;2.93;2.20;;;23.20;98.00;;;;;;5072963;28;20468;-71
2021/06/28 07:13:43;;;;;;;1.60;1.60;;;23.20;98.00;;;;;;5070153;28;20464;-69
2021/06/28 07:16:11;;;;;;;1.60;1.43;;;23.20;98.00;;;;;;5072829;28;20521;-75
2021/06/28 07:18:38;;;;;;;1.80;1.40;;;23.30;98.00;;;;;;5069931;28;20460;-77
2021/06/28 07:21:06;;;;;;;2.03;1.40;;;23.50;98.00;;;;;;5071986;28;20950;-76
2021/06/28 07:23:34;;;;;;;1.47;1.40;;;23.80;98.00;;;;;;5070087;28;20947;-75
2021/06/28 07:26:03;;;;;;;1.93;1.70;;;23.90;98.00;;;;;;5072817;28;20851;-74
2021/06/28 07:28:31;;;;;;;1.37;1.20;;;24.00;98.00;;;;;;5070368;28;20471;-73
2021/06/28 07:30:58;;;;;;;1.80;1.57;;;24.10;98.00;;;;;;5072386;28;21024;-73
2021/06/28 07:33:26;;;;;;;1.70;1.27;;;24.40;98.00;;;;;;5069997;28;20461;-74
2021/06/28 07:35:53;;;;;;;1.60;1.40;;;24.40;98.00;;;;;;5072386;28;21160;-74
2021/06/28 07:38:21;;;;;;;1.43;1.30;;;24.70;98.00;;;;;;5069957;28;20487;-74
2021/06/28 07:40:48;;;;;;;1.20;1.20;;;24.70;98.00;;;;;;5071263;28;20460;-72
2021/06/28 07:43:18;;;;;;;2.00;1.50;;;24.60;98.00;;;;;;5069540;28;20514;-73
2021/06/28 07:45:47;;;;;;;2.03;1.73;;;24.80;98.00;;;;;;5072261;28;20459;-72
2021/06/28 07:48:14;;;;;;;1.70;1.57;;;25.00;98.00;;;;;;5069538;28;20872;-71
2021/06/28 07:50:43;;;;;;;1.50;1.40;;;25.00;98.00;;;;;;5072287;28;20461;-71
2021/06/28 07:53:10;;;;;;;1.80;1.53;;;25.00;98.00;;;;;;5069406;28;20453;-70
2021/06/28 07:55:37;;;;;;;2.00;1.57;;;25.00;98.00;;;;;;5071957;28;20511;-70
2021/06/28 07:58:05;;;;;;;2.80;1.50;;;25.00;98.00;;;;;;5069292;28;20460;-72
2021/06/28 08:00:34;;;;;;;2.00;1.70;;;25.10;98.00;;;;;;5070169;28;20497;-72
2021/06/28 08:03:01;;;;;;;1.40;1.40;;;25.30;98.00;;;;;;5048450;28;20533;-72
2021/06/28 08:08:09;;;;;;;2.07;1.57;;;25.40;98.00;;;;;;5049225;28;21084;-71
2021/06/28 08:10:39;;;;;;;1.90;1.57;;;25.70;98.00;;;;;;5051897;28;20523;-72
2021/06/28 08:13:06;;;;;;;1.50;1.50;;;25.60;98.00;;;;;;5048503;28;20544;-72
2021/06/28 08:15:35;;;;;;;1.60;1.60;;;25.50;98.00;;;;;;5050643;28;20519;-74
2021/06/28 08:18:02;;;;;;;1.80;1.47;;;25.60;98.00;;;;;;5029520;28;20478;-72
2021/06/28 08:20:37;;;;;;;2.00;1.70;;;25.60;98.00;;;;;;5031893;28;20466;-71
2021/06/28 08:23:04;;;;;;;2.20;1.53;;;25.70;98.00;;;;;;5027543;28;20458;-72
2021/06/28 08:25:31;;;;;;;2.10;1.83;;;25.90;98.00;;;;;;5031510;28;20496;-72
2021/06/28 08:27:58;;;;;;;1.50;1.47;;;26.10;98.00;;;;;;5028027;28;20513;-72
2021/06/28 08:30:26;;;;;;;1.70;1.40;;;26.30;98.00;;;;;;5031684;28;20458;-71
2021/06/28 08:32:54;;;;;;;1.60;1.50;;;26.30;98.00;;;;;;5028405;28;20467;-73
2021/06/28 08:35:21;;;;;;;1.40;1.30;;;26.40;98.00;;;;;;5030272;28;20512;-71
2021/06/28 08:37:49;;;;;;;1.50;1.50;;;26.60;98.00;;;;;;5028947;28;20513;-71
2021/06/28 08:40:16;;;;;;;1.67;1.47;;;26.70;98.00;;;;;;5031417;28;20844;-72
2021/06/28 08:42:45;;;;;;;1.53;1.43;;;26.80;98.00;;;;;;5029215;28;20528;-71
2021/06/28 08:45:14;;;;;;;1.50;1.50;;;26.80;97.30;;;;;;5031397;28;20954;-70
2021/06/28 08:47:41;;;;;;;1.77;1.67;;;27.00;96.40;;;;;;5028690;28;20509;-71
2021/06/28 08:50:12;;;;;;;1.20;1.17;;;27.10;95.00;;;;;;5031343;28;20532;-71
2021/06/28 08:52:47;;;;;;;1.60;1.30;;;27.20;95.80;;;;;;5027260;28;20509;-71
2021/06/28 08:55:16;;;;;;;1.53;1.40;;;27.30;95.60;;;;;;5031106;28;20454;-72
2021/06/28 08:57:43;;;;;;;1.47;1.37;;;27.40;94.50;;;;;;5028603;28;20547;-72
2021/06/28 09:00:13;;;;;;;1.63;1.60;;;27.50;94.10;;;;;;5031119;28;20462;-71
2021/06/28 09:02:43;;;;;;;1.80;1.40;;;27.70;93.50;;;;;;5027468;28;20485;-71
2021/06/28 09:05:12;;;;;;;1.70;1.50;;;27.70;93.70;;;;;;5030694;28;20503;-68
2021/06/28 09:07:39;;;;;;;1.70;1.70;;;27.80;94.60;;;;;;5027656;28;20536;-73
2021/06/28 09:10:08;;;;;;;2.37;1.60;;;27.70;94.30;;;;;;5042115;28;20453;-72
2021/06/28 09:12:50;;;;;;;1.33;1.30;;;27.90;94.60;;;;;;5070374;28;20457;-72
2021/06/28 09:15:33;;;;;;;2.00;1.67;;;28.00;94.50;;;;;;5051000;28;20545;-71
2021/06/28 09:18:24;;;;;;;1.93;1.67;;;28.10;92.60;;;;;;5048445;28;20530;-71
2021/06/28 09:21:06;;;;;;;1.50;1.40;;;28.20;92.90;;;;;;5050298;28;20462;-71
2021/06/28 09:23:33;;;;;;;1.30;1.30;;;28.40;92.70;;;;;;5047563;28;20458;-70
2021/06/28 09:26:00;;;;;;;1.70;1.40;;;28.40;91.80;;;;;;5049708;28;20450;-72
2021/06/28 09:28:48;;;;;;;1.60;1.47;;;28.40;90.10;;;;;;5047593;28;20482;-71
2021/06/28 09:31:19;;;;;;;2.10;1.60;;;28.50;92.10;;;;;;5050784;28;20493;-72
2021/06/28 09:34:08;;;;;;;1.40;1.37;;;28.60;92.70;;;;;;5047037;28;20813;-72
2021/06/28 09:36:47;;;;;;;2.37;2.00;;;28.70;92.60;;;;;;5050547;28;20507;-72
2021/06/28 09:39:28;;;;;;;1.70;1.60;;;28.80;90.80;;;;;;5047414;28;20456;-72
2021/06/28 09:42:00;;;;;;;2.60;1.60;;;28.90;90.20;;;;;;5050343;28;20466;-72
2021/06/28 09:44:30;;;;;;;2.03;1.80;;;28.90;89.50;;;;;;5047857;28;20936;-72
2021/06/28 09:47:05;;;;;;;2.00;1.57;;;29.00;89.30;;;;;;5052736;28;20445;-70
2021/06/28 09:49:33;;;;;;;2.17;1.70;;;29.00;89.90;;;;;;5051650;28;20464;-68
2021/06/28 09:52:02;;;;;;;1.60;1.50;;;29.00;89.60;;;;;;5053772;28;20484;-71
2021/06/28 09:54:30;;;;;;;1.70;1.63;;;29.00;86.90;;;;;;5055429;28;20791;-71
2021/06/28 09:56:57;;;;;;;1.63;1.60;;;28.90;86.60;;;;;;5053714;28;20512;-72
2021/06/28 09:59:30;;;;;;;1.70;1.40;;;28.90;88.40;;;;;;5051141;28;20484;-72
2021/06/28 10:02:14;;;;;;;1.63;1.63;;;29.00;89.70;;;;;;5053839;28;20548;-72
2021/06/28 10:04:45;;;;;;;2.10;1.50;;;29.20;89.30;;;;;;5049571;28;20541;-73
2021/06/28 10:07:27;;;;;;;1.47;1.40;;;29.20;88.20;;;;;;5053477;28;20816;-72
2021/06/28 10:10:23;;;;;;;2.23;1.80;;;29.30;88.60;;;;;;5051406;28;20469;-72
2021/06/28 10:13:07;;;;;;;2.00;1.70;;;29.30;87.10;;;;;;5050997;28;20458;-72
2021/06/28 10:15:36;;;;;;;2.30;1.70;;;29.30;87.80;;;;;;5053428;28;20964;-72
2021/06/28 10:18:05;;;;;;;2.03;1.63;;;29.30;87.90;;;;;;5051364;28;20956;-73
2021/06/28 10:20:34;;;;;;;2.40;1.80;;;29.30;88.90;;;;;;5053582;28;20461;-72
2021/06/28 10:23:03;;;;;;;2.03;1.60;;;29.40;87.90;;;;;;5051018;28;20464;-73
2021/06/28 10:25:32;;;;;;;2.60;1.90;;;29.40;90.00;;;;;;5053587;28;20464;-73
2021/06/28 10:28:01;;;;;;;2.40;1.77;;;29.50;91.70;;;;;;5051269;28;20862;-72
2021/06/28 10:30:29;;;;;;;1.90;1.80;;;29.70;87.70;;;;;;5053238;28;20458;-73
2021/06/28 10:33:03;;;;;;;2.00;1.83;;;29.80;87.90;;;;;;5050767;28;20450;-74
2021/06/28 10:35:34;;;;;;;2.17;1.53;;;30.00;86.30;;;;;;5053044;28;20519;-74
2021/06/28 10:38:07;;;;;;;2.70;2.10;;;30.00;85.40;;;;;;5051002;28;20472;-72
2021/06/28 10:40:55;;;;;;;2.27;1.80;;;30.10;88.20;;;;;;5053000;28;20466;-72
2021/06/28 10:43:32;;;;;;;2.80;1.97;;;30.20;84.20;;;;;;5050664;28;20468;-73
2021/06/28 10:46:00;;;;;;;2.47;1.90;;;30.30;86.50;;;;;;5051824;28;20464;-72
2021/06/28 10:48:30;;;;;;;2.13;1.87;;;30.50;86.60;;;;;;5050599;28;21004;-72
2021/06/28 10:51:00;;;;;;;1.67;1.60;;;30.60;85.40;;;;;;5052817;28;20462;-72
2021/06/28 10:54:19;;;;;;;2.10;1.90;;;30.70;83.50;;;;;;5050668;28;20461;-73
2021/06/28 10:56:55;;;;;;;1.80;1.57;;;30.80;84.70;;;;;;5052493;28;20498;-73
2021/06/28 10:59:26;;;;;;;2.60;2.07;;;31.10;84.40;;;;;;5050497;28;20465;-72
2021/06/28 11:02:02;;;;;;;3.00;1.80;;;31.20;85.10;;;;;;5052733;28;20898;-73
2021/06/28 11:04:31;;;;;;;1.80;1.70;;;31.40;83.60;;;;;;5050092;28;20511;-72
2021/06/28 11:07:14;;;;;;;2.40;2.20;;;31.50;85.00;;;;;;5052300;28;20979;-72
2021/06/28 11:09:43;;;;;;;1.80;1.80;;;31.60;82.10;;;;;;5048223;28;20457;-73
2021/06/28 11:12:28;;;;;;;2.17;2.03;;;31.80;83.30;;;;;;5052436;28;20472;-73
2021/06/28 11:14:58;;;;;;;3.13;1.73;;;31.90;81.10;;;;;;5048329;28;20568;-73
2021/06/28 11:17:49;;;;;;;2.10;1.70;;;31.90;83.40;;;;;;5052335;28;20825;-73
2021/06/28 11:20:28;;;;;;;2.97;2.30;;;32.00;81.50;;;;;;5049819;28;20449;-73
2021/06/28 11:23:01;;;;;;;2.20;1.80;;;32.20;84.20;;;;;;5052099;28;20615;-73
2021/06/28 11:25:35;;;;;;;2.10;1.60;;;32.50;79.50;;;;;;5051899;28;20812;-73
2021/06/28 11:28:27;;;;;;;2.13;1.80;;;32.60;80.80;;;;;;5050684;28;20542;-74
2021/06/28 11:31:03;;;;;;;1.77;1.70;;;32.80;79.00;;;;;;5041191;28;20504;-74
2021/06/28 11:33:55;;;;;;;2.07;1.80;;;32.90;78.90;;;;;;5061752;28;20813;-73
2021/06/28 11:36:41;;;;;;;3.17;1.60;;;33.00;78.20;;;;;;5068303;28;20461;-73
2021/06/28 11:39:31;;;;;;;2.00;1.70;;;33.10;77.30;;;;;;5069712;28;20460;-73
2021/06/28 11:42:18;;;;;;;2.13;1.90;;;33.10;76.60;;;;;;5071610;28;20955;-73
2021/06/28 11:44:52;;;;;;;2.27;1.87;;;33.10;77.30;;;;;;5069445;28;20530;-74
2021/06/28 11:47:19;;;;;;;1.93;1.60;;;33.30;77.00;;;;;;5071785;28;20448;-73
2021/06/28 11:49:46;;;;;;;1.97;1.90;;;33.30;76.20;;;;;;5069431;28;20461;-73
2021/06/28 11:52:16;;;;;;;3.03;1.90;;;33.50;77.50;;;;;;5071562;28;20471;-72
2021/06/28 11:54:44;;;;;;;2.90;2.00;;;33.60;74.30;;;;;;5068957;28;20465;-72
2021/06/28 11:57:12;;;;;;;1.73;1.70;;;33.60;74.30;;;;;;5071453;28;20947;-73
2021/06/28 11:59:41;;;;;;;2.50;2.00;;;33.60;74.60;;;;;;5069415;28;20497;-73
2021/06/28 12:02:09;;;;;;;2.00;1.93;;;33.80;74.40;;;;;;5071467;28;20496;-72
2021/06/28 12:04:38;;;;;;;1.60;1.50;;;34.00;73.30;;;;;;5068852;28;20457;-73
2021/06/28 12:07:06;;;;;;;1.90;1.53;;;34.10;71.30;;;;;;5071152;28;20477;-72
2021/06/28 12:09:35;;;;;;;2.37;1.70;;;34.10;71.20;;;;;;5068595;28;20983;-73
2021/06/28 12:12:04;;;;;;;2.13;1.60;;;33.90;73.10;;;;;;5071405;28;20898;-73
2021/06/28 12:14:33;;;;;;;1.57;1.50;;;34.20;71.90;;;;;;5068714;28;21027;-73
2021/06/28 12:17:08;;;;;;;2.40;1.60;;;34.40;70.90;;;;;;5071255;28;20469;-73
2021/06/28 12:19:38;;;;;;;3.50;1.93;;;34.60;70.60;;;;;;5068814;28;20543;-73
2021/06/28 12:22:13;;;;;;;2.03;1.90;;;34.70;70.80;;;;;;5070999;28;20683;-72
2021/06/28 12:24:41;;;;;;;2.40;1.70;;;34.30;71.10;;;;;;5068663;28;20460;-73
2021/06/28 12:27:12;;;;;;;1.67;1.63;;;33.90;72.40;;;;;;5070505;28;20859;-71
2021/06/28 12:29:42;;;;;;;1.70;1.57;;;33.50;73.00;;;;;;5068686;28;20886;-74
2021/06/28 12:32:12;;;;;;;2.10;1.77;;;33.20;72.60;;;;;;5070270;28;20872;-73
2021/06/28 12:34:46;;;;;;;2.03;1.90;;;33.30;71.30;;;;;;5068061;28;20472;-73
2021/06/28 12:37:20;;;;;;;3.00;1.80;;;33.40;72.30;;;;;;5070528;28;20472;-72
2021/06/28 12:39:49;;;;;;;1.73;1.73;;;33.20;72.30;;;;;;5068635;28;20484;-72
2021/06/28 12:42:18;;;;;;;2.03;1.80;;;33.30;74.20;;;;;;5070638;28;20518;-72
2021/06/28 12:44:46;;;;;;;2.33;1.83;;;33.40;71.60;;;;;;5068210;28;20525;-72
2021/06/28 12:47:17;;;;;;;2.50;2.07;;;33.50;71.40;;;;;;5070368;28;20460;-73
2021/06/28 12:49:46;;;;;;;2.40;1.93;;;33.60;75.50;;;;;;5068220;28;20493;-73
2021/06/28 12:52:42;;;;;;;2.27;1.90;;;33.40;74.00;;;;;;5070388;28;20461;-73
2021/06/28 12:55:12;;;;;;;2.20;1.87;;;33.30;73.20;;;;;;5068493;28;20528;-73
2021/06/28 12:57:42;;;;;;;2.43;2.30;;;33.30;70.50;;;;;;5069569;28;20935;-72
2021/06/28 13:00:17;;;;;;;2.83;2.13;;;33.10;68.90;;;;;;5068766;28;20518;-72
2021/06/28 13:03:05;;;;;;;2.67;1.80;;;33.10;70.70;;;;;;5070349;28;20461;-71
2021/06/28 13:05:37;;;;;;;2.10;1.97;;;33.40;72.00;;;;;;5067201;28;20456;-70
2021/06/28 13:08:22;;;;;;;2.40;2.27;;;33.60;72.00;;;;;;5070721;28;20579;-72